Terminal Aerodrome Forecast
Issued by NWS Cleveland, OH

Home | Current Version | Previous Version | Graphics & Text | Print | Product List | Glossary On
Versions: 1 2 3 4 5 6 7 8 9 10 11 12 13 14 15 16
000
FTUS41 KCLE 211409 AAA
TAFTOL
TAF AMD
KTOL 211409Z 2114/2212 19012KT 6SM -SHRA OVC008
      TEMPO 2117/2119 SCT008 OVC012
     FM211900 22014G20KT P6SM VCTS SCT008 OVC020CB
      TEMPO 2119/2121 2SM -TSRA OVC012CB
     FM212100 25014KT P6SM BKN035
     FM220800 25007KT 6SM BR BKN025=

USA.gov is the U.S. government's official web portal to all federal, state and local government web resources and services.